CKE8 weather

Unity Airport
Unity, Saskatchewan, Canada

Public forecast

Using degrees Celsius for public forecast. Weather courtesy of forecast.io.

METAR (pilot weather report)

Closest report is North Battleford Airport, 39.4 nm (73.0 km) ENE. Retrieved 2019/04/25 00:00 UTC (5 minutes ago):

CYQW 250000Z AUTO 29017G32KT 9SM FEW095 11/M08 A2991 RMK SLP149

TAF (pilot weather forecast)

Forecast is more than 12 hours old.

Closest forecast is North Battleford Airport, 39.4 nm (73.0 km) ENE. Retrieved 2019/04/24 00:51 UTC (23 hours ago):

TAF CYQW 242348Z 2500/2512 30020G35KT P6SM SCT100 TEMPO 2500/2503 BKN080 FM250300 29018G28KT P6SM SKC FM251100 30018G28KT P6SM BKN060 TEMPO 2511/2512 4SM -SHRASN BR OVC040 RMK FCST BASED ON AUTO OBS. NXT FCST BY 250600Z